Time;durP1;ratioP1;P1;durP2;ratioP2;P2;SDS_P1;SDS_P2;PMS_P1;PMS_P2;Temp;Humidity;BMP_temperature;BMP_pressure;BME280_temperature;BME280_humidity;BME280_pressure;Samples;Min_cycle;Max_cycle;Signal;HPM_P1;HPM_P2
2023/12/12 00:01:20;;;;;;;2.73;1.07;;;6.40;99.90;;;;;;5086059;28;20028;-71
2023/12/12 00:03:48;;;;;;;5.95;0.85;;;6.30;99.90;;;;;;5083931;28;20071;-71
2023/12/12 00:06:16;;;;;;;3.17;0.90;;;6.30;99.90;;;;;;5087224;28;20432;-70
2023/12/12 00:08:47;;;;;;;2.25;1.00;;;6.20;99.90;;;;;;5082266;28;20036;-71
2023/12/12 00:11:13;;;;;;;2.65;0.75;;;6.10;99.90;;;;;;5081722;28;20090;-70
2023/12/12 00:13:40;;;;;;;3.00;1.23;;;6.10;99.90;;;;;;5087018;28;20511;-71
2023/12/12 00:16:12;;;;;;;2.08;0.70;;;6.10;99.90;;;;;;5085380;28;20114;-71
2023/12/12 00:18:40;;;;;;;1.67;0.60;;;6.00;99.90;;;;;;5087930;28;20242;-71
2023/12/12 00:21:06;;;;;;;3.80;0.70;;;6.00;99.90;;;;;;5085392;28;20036;-71
2023/12/12 00:23:32;;;;;;;4.57;0.80;;;6.00;99.90;;;;;;5088836;28;20506;-71
2023/12/12 00:25:58;;;;;;;5.17;0.93;;;5.90;99.90;;;;;;5085916;28;20050;-71
2023/12/12 00:28:29;;;;;;;3.58;0.90;;;5.90;99.90;;;;;;5082332;28;20035;-71
2023/12/12 00:30:58;;;;;;;2.83;1.30;;;5.80;99.90;;;;;;5081679;28;20059;-71
2023/12/12 00:33:23;;;;;;;3.13;0.93;;;5.80;99.90;;;;;;5082642;28;20032;-71
2023/12/12 00:35:52;;;;;;;2.03;0.93;;;5.70;99.90;;;;;;5089468;28;20392;-70
2023/12/12 00:38:17;;;;;;;2.45;0.90;;;5.70;99.90;;;;;;5080960;28;20035;-71
2023/12/12 00:40:53;;;;;;;7.77;1.77;;;5.70;99.90;;;;;;5085842;28;20047;-71
2023/12/12 00:43:19;;;;;;;2.67;0.98;;;5.60;99.90;;;;;;5089504;28;20055;-71
2023/12/12 00:45:45;;;;;;;;;;;5.60;99.90;;;;;;5082639;28;20440;-71
2023/12/12 00:48:11;;;;;;;5.75;0.90;;;5.60;99.90;;;;;;5084542;28;19965;-71
2023/12/12 00:50:36;;;;;;;14.67;1.83;;;5.50;99.90;;;;;;5084224;28;20089;-70
2023/12/12 00:53:02;;;;;;;2.83;0.90;;;5.50;99.90;;;;;;5068433;28;20048;-71
2023/12/12 00:55:31;;;;;;;8.23;0.88;;;5.50;99.90;;;;;;5083669;28;20109;-71
2023/12/12 00:57:56;;;;;;;2.50;0.75;;;5.40;99.90;;;;;;5084832;28;20071;-71
2023/12/12 01:00:22;;;;;;;5.10;1.00;;;5.40;99.90;;;;;;5080076;28;20044;-70
2023/12/12 01:02:51;;;;;;;4.67;0.80;;;5.50;99.90;;;;;;5087994;28;20036;-71
2023/12/12 01:05:17;;;;;;;3.83;1.17;;;5.30;99.90;;;;;;5083549;28;20046;-71
2023/12/12 01:07:42;;;;;;;3.27;0.77;;;5.30;99.90;;;;;;5085042;28;20036;-71
2023/12/12 01:10:08;;;;;;;6.00;1.50;;;5.20;99.90;;;;;;5083782;28;20401;-71
2023/12/12 01:12:37;;;;;;;6.50;1.10;;;5.20;99.90;;;;;;5083340;28;20039;-71
2023/12/12 01:15:03;;;;;;;3.42;0.85;;;5.20;99.90;;;;;;5086266;28;20189;-72
2023/12/12 01:17:32;;;;;;;4.85;0.75;;;5.20;99.90;;;;;;5081467;28;20048;-70
2023/12/12 01:20:00;;;;;;;6.45;1.08;;;5.10;99.90;;;;;;5078515;28;20465;-70
2023/12/12 01:22:26;;;;;;;5.07;0.90;;;5.10;99.90;;;;;;5068879;28;20136;-70
2023/12/12 01:24:51;;;;;;;4.37;0.97;;;5.10;99.90;;;;;;5087180;28;20512;-70
2023/12/12 01:27:20;;;;;;;2.83;0.90;;;5.00;99.90;;;;;;5064860;28;20032;-70
2023/12/12 01:29:46;;;;;;;8.73;0.98;;;5.00;99.90;;;;;;5082450;28;20032;-70
2023/12/12 01:32:14;;;;;;;1.70;0.80;;;5.00;99.90;;;;;;5081243;28;20042;-70
2023/12/12 01:34:43;;;;;;;3.95;1.10;;;4.90;99.90;;;;;;5085835;28;20484;-70
2023/12/12 01:37:11;;;;;;;4.90;1.20;;;4.90;99.90;;;;;;5089993;28;20131;-70
2023/12/12 01:39:36;;;;;;;1.95;0.77;;;4.90;99.90;;;;;;5088382;28;20036;-70
2023/12/12 01:42:02;;;;;;;5.63;1.07;;;4.90;99.90;;;;;;5089713;28;20055;-71
2023/12/12 01:44:28;;;;;;;2.83;1.03;;;4.80;99.90;;;;;;5091233;28;20039;-70
2023/12/12 01:46:54;;;;;;;3.23;0.80;;;4.80;99.90;;;;;;5089681;28;20406;-70
2023/12/12 01:49:19;;;;;;;4.47;1.00;;;4.80;99.90;;;;;;5083509;28;20040;-70
2023/12/12 01:51:46;;;;;;;3.40;1.00;;;4.80;99.90;;;;;;5089509;28;20047;-70
2023/12/12 01:54:12;;;;;;;;;;;4.80;99.90;;;;;;5083971;28;20040;-70
2023/12/12 01:56:39;;;;;;;3.58;1.30;;;4.80;99.90;;;;;;5083738;28;19923;-70
2023/12/12 01:59:05;;;;;;;1.23;0.65;;;4.70;99.90;;;;;;5086905;28;20040;-70
2023/12/12 02:01:37;;;;;;;4.43;0.90;;;4.70;99.90;;;;;;5086646;28;20044;-70
2023/12/12 02:04:04;;;;;;;2.10;1.00;;;4.70;99.90;;;;;;5086345;28;20055;-70
2023/12/12 02:06:29;;;;;;;9.73;1.00;;;4.70;99.90;;;;;;5089617;28;20123;-70
2023/12/12 02:08:55;;;;;;;4.40;1.47;;;4.60;99.90;;;;;;5092016;28;20146;-70
2023/12/12 02:11:23;;;;;;;7.73;1.47;;;4.60;99.90;;;;;;5092224;28;20134;-71
2023/12/12 02:13:49;;;;;;;5.68;1.10;;;4.60;99.90;;;;;;5085036;28;20441;-71
2023/12/12 02:16:16;;;;;;;2.30;1.10;;;4.60;99.90;;;;;;5089399;28;20040;-71
2023/12/12 02:18:45;;;;;;;2.47;1.08;;;4.50;99.90;;;;;;5089029;28;20040;-71
2023/12/12 02:21:17;;;;;;;1.80;0.90;;;4.60;99.90;;;;;;5088326;28;20184;-71
2023/12/12 02:23:47;;;;;;;3.13;0.88;;;4.50;99.90;;;;;;5087911;28;20093;-71
2023/12/12 02:26:16;;;;;;;7.95;1.33;;;4.50;99.90;;;;;;5088323;28;20044;-71
2023/12/12 02:28:42;;;;;;;7.15;1.35;;;4.50;99.90;;;;;;5086904;28;20050;-70
2023/12/12 02:31:09;;;;;;;6.05;1.27;;;4.50;99.90;;;;;;5084694;28;20330;-70
2023/12/12 02:33:35;;;;;;;3.50;1.00;;;4.50;99.90;;;;;;5089744;28;20032;-70
2023/12/12 02:36:00;;;;;;;2.90;1.77;;;4.50;99.90;;;;;;5087517;28;20051;-70
2023/12/12 02:38:28;;;;;;;7.80;1.75;;;4.50;99.90;;;;;;5088192;28;20047;-70
2023/12/12 02:40:54;;;;;;;4.93;1.50;;;4.50;99.90;;;;;;5084639;28;20511;-72
2023/12/12 02:43:20;;;;;;;3.47;1.30;;;4.50;99.90;;;;;;5085424;28;20047;-69
2023/12/12 02:45:45;;;;;;;5.80;1.53;;;4.40;99.90;;;;;;5089151;28;20046;-70
2023/12/12 02:48:11;;;;;;;4.47;1.60;;;4.40;99.90;;;;;;5086989;28;20044;-69
2023/12/12 02:50:37;;;;;;;5.45;1.45;;;4.40;99.90;;;;;;5087867;28;20481;-71
2023/12/12 02:53:02;;;;;;;6.30;1.50;;;4.40;99.90;;;;;;5084160;28;20101;-70
2023/12/12 02:55:34;;;;;;;5.53;1.40;;;4.40;99.90;;;;;;5086330;28;20128;-70
2023/12/12 02:57:59;;;;;;;3.45;2.00;;;4.40;99.90;;;;;;5091805;28;20047;-70
2023/12/12 03:00:28;;;;;;;6.90;1.60;;;4.40;99.90;;;;;;5086997;28;20056;-70
2023/12/12 03:02:53;;;;;;;3.35;1.85;;;4.40;99.90;;;;;;5094227;28;20082;-70
2023/12/12 03:05:21;;;;;;;6.43;1.60;;;4.40;99.90;;;;;;5085432;28;20080;-70
2023/12/12 03:07:47;;;;;;;4.32;1.30;;;4.40;99.90;;;;;;5088815;28;20409;-70
2023/12/12 03:10:12;;;;;;;4.10;1.40;;;4.40;99.90;;;;;;5085333;28;20047;-70
2023/12/12 03:12:41;;;;;;;5.20;1.63;;;4.40;99.90;;;;;;5084634;28;20219;-70
2023/12/12 03:15:12;;;;;;;3.53;1.50;;;4.40;99.90;;;;;;5086301;28;20044;-70
2023/12/12 03:17:37;;;;;;;6.53;1.60;;;4.40;99.90;;;;;;5085293;28;20039;-70
2023/12/12 03:20:03;;;;;;;5.33;1.27;;;4.40;99.90;;;;;;5083081;28;20405;-70
2023/12/12 03:22:29;;;;;;;4.05;1.52;;;4.40;99.90;;;;;;5086791;28;20123;-71
2023/12/12 03:24:55;;;;;;;7.37;1.93;;;4.40;99.90;;;;;;5094990;28;20126;-71
2023/12/12 03:27:21;;;;;;;5.00;1.20;;;4.40;99.90;;;;;;5087201;28;20044;-71
2023/12/12 03:29:46;;;;;;;8.87;1.87;;;4.40;99.90;;;;;;5086459;28;20430;-71
2023/12/12 03:32:12;;;;;;;2.33;1.30;;;4.40;99.90;;;;;;5090922;28;20073;-71
2023/12/12 03:34:37;;;;;;;4.57;1.37;;;4.40;99.90;;;;;;5087245;28;20281;-71
2023/12/12 03:37:03;;;;;;;3.87;1.30;;;4.40;99.90;;;;;;5083827;28;20135;-70
2023/12/12 03:39:29;;;;;;;4.03;1.37;;;4.40;99.90;;;;;;5095258;28;20043;-71
2023/12/12 03:41:54;;;;;;;11.97;2.20;;;4.50;99.90;;;;;;5083528;28;20121;-71
2023/12/12 03:44:20;;;;;;;5.53;1.70;;;4.50;99.90;;;;;;5096068;28;20051;-71
2023/12/12 03:46:48;;;;;;;3.77;1.30;;;4.40;99.90;;;;;;5086317;28;20051;-71
2023/12/12 03:49:19;;;;;;;8.23;2.50;;;4.50;99.90;;;;;;5086526;28;20399;-71
2023/12/12 03:51:45;;;;;;;2.63;1.40;;;4.50;99.90;;;;;;5080040;28;20071;-71
2023/12/12 03:54:11;;;;;;;7.83;1.70;;;4.50;99.90;;;;;;5091689;28;20492;-71
2023/12/12 03:56:36;;;;;;;5.87;1.50;;;4.50;99.90;;;;;;5089984;28;20047;-71
2023/12/12 03:59:05;;;;;;;4.83;1.20;;;4.60;99.90;;;;;;5089204;28;20055;-71
2023/12/12 04:01:33;;;;;;;5.25;1.20;;;4.60;99.90;;;;;;5085031;28;20043;-71
2023/12/12 04:04:01;;;;;;;8.25;1.60;;;4.60;99.90;;;;;;5088606;28;20054;-71
2023/12/12 04:06:26;;;;;;;3.08;1.50;;;4.60;99.90;;;;;;5070964;28;20744;-71
2023/12/12 04:08:52;;;;;;;4.17;1.43;;;4.70;99.90;;;;;;5079654;28;20058;-70
2023/12/12 04:11:17;;;;;;;8.43;1.50;;;4.70;99.90;;;;;;5085054;28;20040;-70
2023/12/12 04:13:46;;;;;;;7.87;1.60;;;4.70;99.90;;;;;;5095267;28;20036;-70
2023/12/12 04:16:17;;;;;;;3.22;1.63;;;4.70;99.90;;;;;;5086292;28;20044;-70
2023/12/12 04:18:42;;;;;;;5.90;1.73;;;4.70;99.90;;;;;;5094554;28;20127;-70
2023/12/12 04:21:10;;;;;;;8.23;1.80;;;4.70;99.90;;;;;;5088456;28;20222;-70
2023/12/12 04:23:38;;;;;;;7.30;1.85;;;4.70;99.90;;;;;;5085725;28;20148;-71
2023/12/12 04:26:04;;;;;;;3.13;1.58;;;4.70;99.90;;;;;;5087846;28;20119;-70
2023/12/12 04:28:29;;;;;;;3.10;1.77;;;4.70;99.90;;;;;;5088733;28;20043;-70
2023/12/12 04:30:55;;;;;;;8.47;2.33;;;4.70;99.90;;;;;;5091693;28;20326;-71
2023/12/12 04:33:23;;;;;;;7.75;1.63;;;4.70;99.90;;;;;;5083222;28;20072;-71
2023/12/12 04:35:49;;;;;;;3.63;1.63;;;4.70;99.90;;;;;;5083744;28;20078;-70
2023/12/12 04:38:17;;;;;;;5.68;2.47;;;4.80;99.90;;;;;;5084406;28;20037;-70
2023/12/12 04:40:46;;;;;;;5.33;1.80;;;4.80;99.90;;;;;;5080060;28;20146;-70
2023/12/12 04:43:17;;;;;;;5.28;2.00;;;4.80;99.90;;;;;;5080971;28;20055;-70
2023/12/12 04:45:42;;;;;;;4.32;1.83;;;4.80;99.90;;;;;;5082131;28;20070;-71
2023/12/12 04:48:08;;;;;;;8.07;3.23;;;4.90;99.90;;;;;;5085343;28;20044;-70
2023/12/12 04:50:33;;;;;;;3.23;1.87;;;4.90;99.90;;;;;;5088041;28;20028;-70
2023/12/12 04:52:59;;;;;;;7.60;2.07;;;4.90;99.90;;;;;;5086488;28;20052;-70
2023/12/12 04:55:25;;;;;;;4.53;2.40;;;4.90;99.90;;;;;;5082921;28;20444;-70
2023/12/12 04:57:50;;;;;;;6.03;2.50;;;4.90;99.90;;;;;;5086037;28;20050;-71
2023/12/12 05:00:16;;;;;;;4.67;2.37;;;4.80;99.90;;;;;;5075354;28;20044;-70
2023/12/12 05:02:42;;;;;;;6.53;2.53;;;4.90;99.90;;;;;;5083332;28;20050;-70
2023/12/12 05:05:08;;;;;;;5.68;2.50;;;4.80;99.90;;;;;;5086002;28;20052;-70
2023/12/12 05:07:34;;;;;;;8.73;2.38;;;4.90;99.90;;;;;;5071917;28;20079;-70
2023/12/12 05:10:10;;;;;;;7.60;3.22;;;4.90;99.90;;;;;;5087143;28;20135;-71
2023/12/12 05:12:36;;;;;;;14.45;3.30;;;4.80;99.90;;;;;;5089789;28;20075;-70
2023/12/12 05:15:02;;;;;;;8.87;2.63;;;4.80;99.90;;;;;;5090279;28;20124;-70
2023/12/12 05:17:27;;;;;;;12.13;3.58;;;4.80;99.90;;;;;;5071765;28;20488;-70
2023/12/12 05:19:53;;;;;;;7.77;3.07;;;4.80;99.90;;;;;;5091144;28;20143;-71
2023/12/12 05:22:19;;;;;;;10.20;3.33;;;4.80;99.90;;;;;;5091610;28;20067;-70
2023/12/12 05:24:44;;;;;;;9.47;3.67;;;4.80;99.90;;;;;;5072790;28;20048;-70
2023/12/12 05:27:12;;;;;;;9.07;3.80;;;4.70;99.90;;;;;;5088592;28;20036;-70
2023/12/12 05:29:38;;;;;;;8.57;3.60;;;4.70;99.90;;;;;;5083809;28;20036;-70
2023/12/12 05:32:04;;;;;;;8.47;3.60;;;4.80;99.90;;;;;;5090575;28;20047;-70
2023/12/12 05:34:29;;;;;;;9.85;3.67;;;4.70;99.90;;;;;;5088218;28;20435;-70
2023/12/12 05:36:55;;;;;;;7.80;3.90;;;4.70;99.90;;;;;;5091593;28;20119;-70
2023/12/12 05:39:21;;;;;;;14.10;4.10;;;4.70;99.90;;;;;;5096063;28;20040;-70
2023/12/12 05:41:48;;;;;;;8.95;4.50;;;4.60;99.90;;;;;;5093107;28;20047;-69
2023/12/12 05:44:16;;;;;;;10.50;3.65;;;4.70;99.90;;;;;;5091065;28;20560;-70
2023/12/12 05:46:45;;;;;;;11.38;4.30;;;4.70;99.90;;;;;;5086851;28;20040;-70
2023/12/12 05:49:13;;;;;;;16.20;4.50;;;4.70;99.90;;;;;;5072705;28;20487;-70
2023/12/12 05:51:40;;;;;;;9.65;3.65;;;4.70;99.90;;;;;;5087063;28;20044;-70
2023/12/12 05:54:11;;;;;;;12.60;4.68;;;4.70;99.90;;;;;;5089957;28;20055;-70
2023/12/12 05:56:37;;;;;;;10.80;4.28;;;4.70;99.90;;;;;;5087979;28;20149;-70
2023/12/12 05:59:05;;;;;;;11.82;5.07;;;4.70;99.90;;;;;;5090907;28;20349;-70
2023/12/12 06:01:31;;;;;;;12.93;4.20;;;4.70;99.90;;;;;;5084458;28;20044;-71
2023/12/12 06:03:56;;;;;;;9.20;3.43;;;4.60;99.90;;;;;;5089557;28;20515;-71
2023/12/12 06:06:22;;;;;;;11.17;4.07;;;4.60;99.90;;;;;;5085578;28;20040;-70
2023/12/12 06:08:47;;;;;;;12.83;4.07;;;4.60;99.90;;;;;;5088705;28;20094;-70
2023/12/12 06:11:16;;;;;;;11.27;4.60;;;4.60;99.90;;;;;;5086914;28;20040;-70
2023/12/12 06:13:41;;;;;;;13.23;4.22;;;4.50;99.90;;;;;;5086615;28;20044;-70
2023/12/12 06:16:07;;;;;;;16.90;5.00;;;4.50;99.90;;;;;;5088907;28;20122;-70
2023/12/12 06:18:33;;;;;;;13.65;4.70;;;4.50;99.90;;;;;;5090102;28;20415;-70
2023/12/12 06:20:58;;;;;;;13.20;5.50;;;4.50;99.90;;;;;;5092691;28;20079;-70
2023/12/12 06:23:27;;;;;;;13.00;5.40;;;4.40;99.90;;;;;;5091107;28;20032;-70
2023/12/12 06:25:53;;;;;;;14.50;5.47;;;4.40;99.90;;;;;;5087655;28;20040;-70
2023/12/12 06:28:22;;;;;;;13.63;5.03;;;4.40;99.90;;;;;;5084302;28;20040;-75
2023/12/12 06:30:48;;;;;;;9.55;3.90;;;4.50;99.90;;;;;;5079911;28;20040;-74
2023/12/12 06:33:18;;;;;;;13.57;5.23;;;4.40;99.90;;;;;;5067804;28;20085;-73
2023/12/12 06:35:46;;;;;;;10.25;4.13;;;4.40;99.90;;;;;;5081195;28;20036;-75
2023/12/12 06:38:17;;;;;;;15.95;4.85;;;4.40;99.90;;;;;;5059314;28;20086;-74
2023/12/12 06:40:42;;;;;;;6.72;3.67;;;4.40;99.90;;;;;;5086160;28;20078;-75
2023/12/12 06:43:08;;;;;;;9.53;3.97;;;4.40;99.90;;;;;;5073428;28;20044;-74
2023/12/12 06:45:33;;;;;;;14.53;4.60;;;4.40;99.90;;;;;;5073450;28;20381;-74
2023/12/12 06:47:59;;;;;;;9.87;4.47;;;4.30;99.90;;;;;;5084636;28;20077;-74
2023/12/12 06:50:25;;;;;;;11.07;4.07;;;4.40;99.90;;;;;;5077727;28;20499;-72
2023/12/12 06:52:51;;;;;;;9.73;4.10;;;4.30;99.90;;;;;;5083123;28;20040;-72
2023/12/12 06:55:17;;;;;;;13.10;4.77;;;4.30;99.90;;;;;;5065414;28;20068;-71
2023/12/12 06:57:42;;;;;;;9.45;4.35;;;4.40;99.90;;;;;;5066015;28;20040;-72
2023/12/12 07:00:09;;;;;;;13.93;5.67;;;4.40;99.90;;;;;;5081105;28;20538;-78
2023/12/12 07:02:37;;;;;;;9.82;5.28;;;4.40;99.90;;;;;;5078755;28;20434;-73
2023/12/12 07:05:04;;;;;;;15.53;5.80;;;4.40;99.90;;;;;;5085170;28;20045;-72
2023/12/12 07:07:32;;;;;;;17.15;6.63;;;4.40;99.90;;;;;;5081707;28;20055;-72
2023/12/12 07:10:02;;;;;;;17.85;6.20;;;4.50;99.90;;;;;;5066520;28;20091;-76
2023/12/12 07:12:28;;;;;;;18.17;6.13;;;4.40;99.90;;;;;;5083724;28;20458;-76
2023/12/12 07:14:54;;;;;;;20.33;5.03;;;4.50;99.90;;;;;;5078862;28;20032;-79
2023/12/12 07:17:23;;;;;;;16.88;5.47;;;4.60;99.90;;;;;;5074216;28;20460;-72
2023/12/12 07:19:48;;;;;;;12.50;4.13;;;4.60;99.90;;;;;;5082421;28;20043;-76
2023/12/12 07:22:14;;;;;;;36.47;5.40;;;4.60;99.90;;;;;;5084396;28;20047;-75
2023/12/12 07:24:40;;;;;;;20.93;5.83;;;4.70;99.90;;;;;;5085367;28;20044;-74
2023/12/12 07:27:06;;;;;;;21.25;4.75;;;4.70;99.90;;;;;;5078066;28;20101;-72
2023/12/12 07:29:33;;;;;;;14.23;4.40;;;4.70;99.90;;;;;;5081541;28;20045;-71
2023/12/12 07:32:01;;;;;;;24.43;5.10;;;4.70;99.90;;;;;;5084867;28;20036;-70
2023/12/12 07:34:28;;;;;;;30.02;5.13;;;4.70;99.90;;;;;;5083497;28;20039;-69
2023/12/12 07:36:53;;;;;;;29.10;5.68;;;4.70;99.90;;;;;;5087092;28;20197;-70
2023/12/12 07:39:21;;;;;;;28.97;5.23;;;4.80;99.90;;;;;;5090413;28;20096;-70
2023/12/12 07:41:49;;;;;;;18.83;4.93;;;4.80;99.90;;;;;;5085684;28;20040;-70
2023/12/12 07:44:15;;;;;;;50.60;5.68;;;4.80;99.90;;;;;;5086547;28;20044;-70
2023/12/12 07:46:41;;;;;;;29.07;5.77;;;4.80;99.90;;;;;;5081839;28;20484;-70
2023/12/12 07:49:07;;;;;;;31.25;5.65;;;4.80;99.90;;;;;;5087064;28;20408;-70
2023/12/12 07:51:32;;;;;;;44.75;6.32;;;4.80;99.90;;;;;;5091983;28;20135;-70
2023/12/12 07:54:05;;;;;;;33.07;5.87;;;4.90;99.90;;;;;;5086496;28;20126;-70
2023/12/12 07:56:33;;;;;;;32.63;6.18;;;4.90;99.90;;;;;;5089736;28;20059;-70
2023/12/12 07:58:59;;;;;;;38.60;6.40;;;4.90;99.90;;;;;;5069655;28;20533;-70
2023/12/12 08:01:25;;;;;;;28.33;6.37;;;4.90;99.90;;;;;;5066592;28;20139;-70
2023/12/12 08:03:50;;;;;;;38.50;6.23;;;4.90;99.90;;;;;;5080910;28;20451;-70
2023/12/12 08:06:16;;;;;;;58.45;7.13;;;5.00;99.90;;;;;;5076948;28;20148;-70
2023/12/12 08:08:42;;;;;;;52.00;7.77;;;5.00;99.90;;;;;;5084796;28;20536;-70
2023/12/12 08:11:14;;;;;;;13.00;5.60;;;5.00;99.90;;;;;;5086100;28;20180;-70
2023/12/12 08:13:40;;;;;;;40.42;8.77;;;5.10;99.90;;;;;;5077405;28;20044;-70
2023/12/12 08:16:06;;;;;;;32.93;7.27;;;5.00;99.90;;;;;;5081653;28;20046;-70
2023/12/12 08:18:32;;;;;;;37.90;8.02;;;5.10;99.90;;;;;;5084114;28;20051;-70
2023/12/12 08:20:58;;;;;;;32.50;8.90;;;5.20;99.90;;;;;;5087633;28;20481;-70
2023/12/12 08:23:23;;;;;;;57.70;10.10;;;5.20;99.90;;;;;;5085816;28;20141;-70
2023/12/12 08:25:49;;;;;;;56.93;12.87;;;5.20;99.90;;;;;;5075303;28;20507;-70
2023/12/12 08:28:15;;;;;;;69.80;12.77;;;5.20;99.90;;;;;;5083308;28;20119;-76
2023/12/12 08:30:41;;;;;;;73.00;13.90;;;5.30;99.90;;;;;;5086579;28;20674;-71
2023/12/12 08:33:06;;;;;;;68.30;12.32;;;5.30;99.90;;;;;;5084801;28;20036;-71
2023/12/12 08:35:32;;;;;;;45.67;11.60;;;5.30;99.90;;;;;;5087438;28;20115;-71
2023/12/12 08:37:58;;;;;;;53.93;10.57;;;5.30;99.90;;;;;;5089146;28;20096;-70
2023/12/12 08:40:24;;;;;;;67.63;12.02;;;5.30;99.90;;;;;;5084529;28;20094;-71
2023/12/12 08:42:49;;;;;;;58.57;11.37;;;5.40;99.90;;;;;;5088572;28;20048;-71
2023/12/12 08:45:15;;;;;;;48.13;9.70;;;5.40;99.90;;;;;;5092483;28;20040;-71
2023/12/12 08:47:41;;;;;;;31.87;8.80;;;5.40;99.90;;;;;;5091118;28;20497;-70
2023/12/12 08:50:09;;;;;;;35.57;8.90;;;5.40;99.90;;;;;;5087389;28;20050;-71
2023/12/12 08:52:35;;;;;;;28.90;8.77;;;5.40;99.90;;;;;;5090353;28;20044;-70
2023/12/12 08:55:03;;;;;;;;;;;5.50;99.90;;;;;;5095287;28;20450;-72
2023/12/12 08:57:29;;;;;;;44.70;9.45;;;5.50;99.90;;;;;;5094231;28;19984;-70
2023/12/12 08:59:55;;;;;;;28.67;8.57;;;5.50;99.90;;;;;;5093003;28;20040;-70
2023/12/12 09:02:21;;;;;;;30.70;9.27;;;5.50;99.90;;;;;;5091001;28;20119;-71
2023/12/12 09:04:46;;;;;;;25.77;10.50;;;5.60;99.90;;;;;;5087429;28;20032;-71
2023/12/12 09:07:12;;;;;;;22.98;10.77;;;5.60;99.90;;;;;;5093810;28;20272;-71
2023/12/12 09:09:38;;;;;;;33.87;11.20;;;5.60;99.90;;;;;;5087185;28;20152;-71
2023/12/12 09:12:04;;;;;;;39.77;11.73;;;5.60;99.90;;;;;;5084227;28;20501;-72
2023/12/12 09:14:30;;;;;;;;;;;5.60;99.90;;;;;;5090223;28;20074;-70
2023/12/12 09:16:55;;;;;;;44.72;11.93;;;5.70;99.90;;;;;;5085047;28;19958;-71
2023/12/12 09:19:21;;;;;;;35.07;11.37;;;5.70;99.90;;;;;;5087630;28;20039;-70
2023/12/12 09:21:49;;;;;;;41.87;11.33;;;5.70;99.90;;;;;;5090580;28;20678;-70
2023/12/12 09:24:14;;;;;;;42.83;10.95;;;5.70;99.90;;;;;;5068567;28;20546;-70
2023/12/12 09:26:40;;;;;;;44.93;10.37;;;5.70;99.90;;;;;;5089683;28;20032;-71
2023/12/12 09:29:06;;;;;;;35.30;9.32;;;5.70;99.90;;;;;;5090969;28;20129;-71
2023/12/12 09:31:33;;;;;;;40.67;9.83;;;5.80;99.90;;;;;;5086858;28;20313;-71
2023/12/12 09:33:59;;;;;;;43.85;10.93;;;5.70;99.90;;;;;;5087934;28;20055;-70
2023/12/12 09:36:24;;;;;;;24.83;8.47;;;5.70;99.90;;;;;;5084034;28;20040;-70
2023/12/12 09:38:50;;;;;;;40.40;9.60;;;5.70;99.90;;;;;;5078858;28;20044;-70
2023/12/12 09:41:22;;;;;;;24.63;8.60;;;5.70;99.90;;;;;;5091889;28;20097;-70
2023/12/12 09:43:49;;;;;;;19.08;9.00;;;5.70;99.90;;;;;;5089241;28;20044;-71
2023/12/12 09:46:16;;;;;;;18.80;8.20;;;5.70;99.90;;;;;;5085431;28;20097;-70
2023/12/12 09:48:47;;;;;;;26.45;8.27;;;5.70;99.90;;;;;;5069165;28;20042;-70
2023/12/12 09:51:17;;;;;;;27.85;8.90;;;5.70;99.90;;;;;;5086097;28;20116;-70
2023/12/12 09:53:46;;;;;;;29.67;8.98;;;5.60;99.90;;;;;;5084109;28;20349;-70
2023/12/12 09:56:17;;;;;;;14.90;8.73;;;5.70;99.90;;;;;;5072395;28;20044;-71
2023/12/12 09:58:46;;;;;;;31.30;9.38;;;5.70;99.90;;;;;;5087815;28;20040;-70
2023/12/12 10:01:13;;;;;;;33.95;9.57;;;5.70;99.90;;;;;;5089802;28;20040;-72
2023/12/12 10:03:39;;;;;;;46.80;10.38;;;5.70;99.90;;;;;;5087263;28;20032;-72
2023/12/12 10:06:08;;;;;;;30.92;9.80;;;5.70;99.90;;;;;;5074947;28;20047;-73
2023/12/12 10:08:37;;;;;;;27.73;9.73;;;5.70;99.90;;;;;;5087073;28;20512;-72
2023/12/12 10:11:08;;;;;;;27.80;10.32;;;5.70;99.90;;;;;;5092018;28;20032;-72
2023/12/12 10:13:50;;;;;;;30.23;9.88;;;5.70;99.90;;;;;;5078536;28;20056;-72
2023/12/12 10:16:19;;;;;;;25.27;9.85;;;5.80;99.90;;;;;;5071035;28;20040;-72
2023/12/12 10:18:46;;;;;;;26.35;9.73;;;5.80;99.90;;;;;;5084945;28;20428;-72
2023/12/12 10:21:20;;;;;;;25.67;10.45;;;5.80;99.90;;;;;;5085602;28;20329;-72
2023/12/12 10:23:54;;;;;;;26.27;10.60;;;5.80;99.90;;;;;;5090685;28;20035;-72
2023/12/12 10:26:29;;;;;;;23.27;10.02;;;5.80;99.90;;;;;;5085737;28;20306;-72
2023/12/12 10:28:56;;;;;;;21.80;10.88;;;5.80;99.90;;;;;;5087572;28;20115;-72
2023/12/12 10:31:25;;;;;;;20.27;10.35;;;5.90;99.90;;;;;;5087565;28;20048;-72
2023/12/12 10:33:52;;;;;;;22.52;10.15;;;5.90;99.90;;;;;;5078182;28;20044;-72
2023/12/12 10:36:18;;;;;;;29.50;11.27;;;5.80;99.90;;;;;;5083008;28;20413;-72
2023/12/12 10:38:44;;;;;;;23.10;10.30;;;5.90;99.90;;;;;;5079898;28;21975;-72
2023/12/12 10:41:17;;;;;;;;;;;5.90;99.90;;;;;;5085676;28;20088;-72
2023/12/12 10:43:44;;;;;;;19.88;10.75;;;6.00;99.90;;;;;;5095100;28;20436;-73
2023/12/12 10:46:12;;;;;;;22.40;10.40;;;6.00;99.90;;;;;;5080751;28;20054;-72
2023/12/12 10:48:49;;;;;;;22.42;11.00;;;6.10;99.90;;;;;;5058469;28;20458;-72
2023/12/12 10:51:16;;;;;;;25.33;11.00;;;6.10;99.90;;;;;;5087773;28;20027;-73
2023/12/12 10:53:44;;;;;;;20.77;10.20;;;6.20;99.90;;;;;;5080361;28;20415;-72
2023/12/12 10:56:14;;;;;;;19.30;9.90;;;6.20;99.90;;;;;;5060827;28;20051;-72
2023/12/12 10:58:42;;;;;;;21.55;9.48;;;6.30;99.90;;;;;;5092662;28;20039;-72
2023/12/12 11:01:13;;;;;;;20.08;10.45;;;6.40;99.90;;;;;;5088238;28;20044;-72
2023/12/12 11:03:40;;;;;;;18.02;9.32;;;6.40;99.90;;;;;;5085160;28;20040;-72
2023/12/12 11:06:07;;;;;;;19.13;9.55;;;6.40;99.90;;;;;;5073384;28;20043;-72
2023/12/12 11:08:33;;;;;;;22.10;10.43;;;6.50;99.90;;;;;;5085113;28;20036;-72
2023/12/12 11:11:15;;;;;;;18.58;9.80;;;6.50;99.90;;;;;;5077073;28;20210;-72
2023/12/12 11:13:43;;;;;;;18.75;9.25;;;6.50;99.90;;;;;;5082978;28;20202;-73
2023/12/12 11:16:10;;;;;;;17.95;9.63;;;6.60;99.90;;;;;;5085141;28;20122;-73
2023/12/12 11:18:39;;;;;;;17.52;8.70;;;6.60;99.90;;;;;;5081147;28;20036;-73
2023/12/12 11:21:05;;;;;;;22.35;10.13;;;6.60;99.90;;;;;;5085265;28;20040;-73
2023/12/12 11:23:52;;;;;;;17.33;9.67;;;6.60;99.90;;;;;;5068534;28;20040;-74
2023/12/12 11:26:19;;;;;;;19.58;9.85;;;6.60;99.90;;;;;;5083141;28;20338;-73
2023/12/12 11:28:46;;;;;;;21.70;10.07;;;6.60;99.90;;;;;;5084186;28;20036;-73
2023/12/12 11:31:21;;;;;;;19.77;9.70;;;6.70;99.90;;;;;;5079059;28;20074;-73
2023/12/12 11:34:12;;;;;;;17.02;9.00;;;6.70;99.90;;;;;;5081564;28;20449;-73
2023/12/12 11:36:57;;;;;;;19.85;10.10;;;6.70;99.90;;;;;;5081334;28;20055;-73
2023/12/12 11:39:37;;;;;;;15.95;9.50;;;6.70;99.90;;;;;;5077393;28;20084;-73
2023/12/12 11:42:24;;;;;;;19.95;10.38;;;6.80;99.90;;;;;;5080093;28;20040;-73
2023/12/12 11:44:54;;;;;;;22.05;10.40;;;6.80;99.90;;;;;;5085715;28;20047;-73
2023/12/12 11:47:23;;;;;;;18.33;10.05;;;6.80;99.90;;;;;;5074513;28;20059;-73
2023/12/12 11:49:50;;;;;;;18.48;9.85;;;6.80;99.90;;;;;;5082612;28;20042;-73
2023/12/12 11:52:51;;;;;;;;;;;6.80;99.90;;;;;;5082047;28;20036;-73
2023/12/12 11:55:29;;;;;;;18.83;8.80;;;6.90;99.90;;;;;;5064151;28;19916;-73
2023/12/12 11:57:59;;;;;;;18.65;9.85;;;6.90;99.90;;;;;;5079739;28;20048;-73
2023/12/12 12:00:24;;;;;;;20.08;10.20;;;6.90;99.90;;;;;;5085686;28;20119;-73
2023/12/12 12:02:50;;;;;;;23.20;10.23;;;6.90;99.90;;;;;;5079606;28;20170;-73
2023/12/12 12:05:16;;;;;;;19.77;10.03;;;6.90;99.90;;;;;;5065048;28;20411;-73
2023/12/12 12:07:41;;;;;;;17.93;10.50;;;6.90;99.90;;;;;;5078076;28;20649;-73
2023/12/12 12:10:10;;;;;;;25.83;11.10;;;6.90;99.90;;;;;;5083887;28;20042;-73
2023/12/12 12:12:36;;;;;;;21.30;10.05;;;6.90;99.90;;;;;;5081767;28;20110;-73
2023/12/12 12:15:03;;;;;;;26.93;11.27;;;6.90;99.90;;;;;;5068087;28;20572;-73
2023/12/12 12:17:37;;;;;;;21.05;10.75;;;6.90;99.90;;;;;;5075981;28;20352;-73
2023/12/12 12:20:04;;;;;;;21.45;11.27;;;6.90;99.90;;;;;;5071586;28;20044;-73
2023/12/12 12:22:30;;;;;;;23.13;11.40;;;6.90;99.90;;;;;;5082367;28;20460;-73
2023/12/12 12:24:56;;;;;;;24.48;10.60;;;6.90;99.90;;;;;;5082869;28;20035;-73
2023/12/12 12:27:22;;;;;;;;;;;6.90;99.90;;;;;;5080663;28;20300;-73
2023/12/12 12:30:03;;;;;;;22.42;9.80;;;6.90;99.90;;;;;;5083258;28;20183;-73
2023/12/12 12:32:29;;;;;;;21.25;10.23;;;6.90;99.90;;;;;;5088383;28;20036;-73
2023/12/12 12:35:08;;;;;;;18.23;10.60;;;6.90;99.90;;;;;;5074673;28;20365;-73
2023/12/12 12:37:35;;;;;;;20.73;10.70;;;6.90;99.90;;;;;;5081658;28;20042;-73
2023/12/12 12:40:05;;;;;;;23.65;10.50;;;6.90;99.90;;;;;;5082423;28;20043;-73
2023/12/12 12:42:33;;;;;;;24.55;10.60;;;6.90;99.90;;;;;;5074471;28;20201;-71
2023/12/12 12:44:59;;;;;;;19.83;10.35;;;6.90;99.90;;;;;;5080510;28;20094;-71
2023/12/12 12:47:25;;;;;;;18.13;10.13;;;7.00;99.90;;;;;;5083013;28;20043;-71
2023/12/12 12:49:50;;;;;;;18.77;9.43;;;6.90;99.90;;;;;;5077363;28;20040;-71
2023/12/12 12:52:16;;;;;;;18.27;9.80;;;6.90;99.90;;;;;;5063964;28;20145;-71